Terminal Aerodrome Forecast
Issued by NWS Sioux Falls, SD

Home | Current Version | Previous Version | Text Only | Print | Product List | Glossary On
Versions: 1 2 3 4 5 6 7 8 9 10 11 12 13 14 15 16 17
000
FTUS43 KFSD 151720
TAFHON
TAF
KHON 151720Z 1518/1618 22008KT P6SM BKN120
     FM160600 26006KT P6SM SCT200
     FM161100 30006KT P6SM BKN200
     FM161600 33008KT P6SM BKN080=

USA.gov is the U.S. government's official web portal to all federal, state and local government web resources and services.